sensor_id;sensor_type;location;lat;lon;timestamp;temperature;humidity
16995;DHT22;8614;48.522;9.206;2024-03-02T00:02:14;6.50;99.90
16995;DHT22;8614;48.522;9.206;2024-03-02T00:04:44;6.60;99.90
16995;DHT22;8614;48.522;9.206;2024-03-02T00:07:14;6.50;99.90
16995;DHT22;8614;48.522;9.206;2024-03-02T00:09:41;6.50;99.90
16995;DHT22;8614;48.522;9.206;2024-03-02T00:12:10;6.50;99.90
16995;DHT22;8614;48.522;9.206;2024-03-02T00:14:38;6.40;99.90
16995;DHT22;8614;48.522;9.206;2024-03-02T00:17:05;6.40;99.90
16995;DHT22;8614;48.522;9.206;2024-03-02T00:19:33;6.40;99.90
16995;DHT22;8614;48.522;9.206;2024-03-02T00:22:02;6.40;99.90
16995;DHT22;8614;48.522;9.206;2024-03-02T00:24:32;6.40;99.90
16995;DHT22;8614;48.522;9.206;2024-03-02T00:27:01;6.40;99.90
16995;DHT22;8614;48.522;9.206;2024-03-02T00:29:29;6.40;99.90
16995;DHT22;8614;48.522;9.206;2024-03-02T00:31:56;6.40;99.90
16995;DHT22;8614;48.522;9.206;2024-03-02T00:34:23;6.40;99.90
16995;DHT22;8614;48.522;9.206;2024-03-02T00:36:50;6.30;99.90
16995;DHT22;8614;48.522;9.206;2024-03-02T00:39:18;6.30;99.90
16995;DHT22;8614;48.522;9.206;2024-03-02T00:41:45;6.30;99.90
16995;DHT22;8614;48.522;9.206;2024-03-02T00:44:13;6.20;99.90
16995;DHT22;8614;48.522;9.206;2024-03-02T00:46:43;6.20;99.90
16995;DHT22;8614;48.522;9.206;2024-03-02T00:49:21;6.20;99.90
16995;DHT22;8614;48.522;9.206;2024-03-02T00:51:49;6.10;99.90
16995;DHT22;8614;48.522;9.206;2024-03-02T00:54:21;6.20;99.90
16995;DHT22;8614;48.522;9.206;2024-03-02T00:56:49;6.10;99.90
16995;DHT22;8614;48.522;9.206;2024-03-02T00:59:16;6.10;99.90
16995;DHT22;8614;48.522;9.206;2024-03-02T01:01:43;6.00;99.90
16995;DHT22;8614;48.522;9.206;2024-03-02T01:04:11;6.00;99.90
16995;DHT22;8614;48.522;9.206;2024-03-02T01:06:39;5.90;99.90
16995;DHT22;8614;48.522;9.206;2024-03-02T01:09:06;5.90;99.90
16995;DHT22;8614;48.522;9.206;2024-03-02T01:11:34;5.90;99.90
16995;DHT22;8614;48.522;9.206;2024-03-02T01:14:01;5.80;99.90
16995;DHT22;8614;48.522;9.206;2024-03-02T01:16:28;5.80;99.90
16995;DHT22;8614;48.522;9.206;2024-03-02T01:18:54;5.80;99.90
16995;DHT22;8614;48.522;9.206;2024-03-02T01:21:21;5.80;99.90
16995;DHT22;8614;48.522;9.206;2024-03-02T01:23:48;5.70;99.90
16995;DHT22;8614;48.522;9.206;2024-03-02T01:26:15;5.70;99.90
16995;DHT22;8614;48.522;9.206;2024-03-02T01:28:43;5.70;99.90
16995;DHT22;8614;48.522;9.206;2024-03-02T01:31:09;5.70;99.90
16995;DHT22;8614;48.522;9.206;2024-03-02T01:33:36;5.70;99.90
16995;DHT22;8614;48.522;9.206;2024-03-02T01:36:04;5.60;99.90
16995;DHT22;8614;48.522;9.206;2024-03-02T01:38:31;5.60;99.90
16995;DHT22;8614;48.522;9.206;2024-03-02T01:40:58;5.50;99.90
16995;DHT22;8614;48.522;9.206;2024-03-02T01:43:25;5.60;99.90
16995;DHT22;8614;48.522;9.206;2024-03-02T01:45:53;5.50;99.90
16995;DHT22;8614;48.522;9.206;2024-03-02T01:48:20;5.40;99.90
16995;DHT22;8614;48.522;9.206;2024-03-02T01:50:46;5.40;99.90
16995;DHT22;8614;48.522;9.206;2024-03-02T01:53:13;5.30;99.90
16995;DHT22;8614;48.522;9.206;2024-03-02T01:55:40;5.30;99.90
16995;DHT22;8614;48.522;9.206;2024-03-02T01:58:07;5.20;99.90
16995;DHT22;8614;48.522;9.206;2024-03-02T02:00:34;5.10;99.90
16995;DHT22;8614;48.522;9.206;2024-03-02T02:03:02;5.10;99.90
16995;DHT22;8614;48.522;9.206;2024-03-02T02:05:29;5.10;99.90
16995;DHT22;8614;48.522;9.206;2024-03-02T02:07:57;5.00;99.90
16995;DHT22;8614;48.522;9.206;2024-03-02T02:10:24;4.90;99.90
16995;DHT22;8614;48.522;9.206;2024-03-02T02:12:51;4.90;99.90
16995;DHT22;8614;48.522;9.206;2024-03-02T02:15:24;4.90;99.90
16995;DHT22;8614;48.522;9.206;2024-03-02T02:17:51;4.80;99.90
16995;DHT22;8614;48.522;9.206;2024-03-02T02:20:19;4.80;99.90
16995;DHT22;8614;48.522;9.206;2024-03-02T02:22:56;4.70;99.90
16995;DHT22;8614;48.522;9.206;2024-03-02T02:25:22;4.70;99.90
16995;DHT22;8614;48.522;9.206;2024-03-02T02:27:49;4.60;99.90
16995;DHT22;8614;48.522;9.206;2024-03-02T02:30:19;4.60;99.90
16995;DHT22;8614;48.522;9.206;2024-03-02T02:32:46;4.60;99.90
16995;DHT22;8614;48.522;9.206;2024-03-02T02:35:13;4.60;99.90
16995;DHT22;8614;48.522;9.206;2024-03-02T02:37:40;4.40;99.90
16995;DHT22;8614;48.522;9.206;2024-03-02T02:40:09;4.40;99.90
16995;DHT22;8614;48.522;9.206;2024-03-02T02:42:35;4.30;99.90
16995;DHT22;8614;48.522;9.206;2024-03-02T02:45:02;4.30;99.90
16995;DHT22;8614;48.522;9.206;2024-03-02T02:47:29;4.30;99.90
16995;DHT22;8614;48.522;9.206;2024-03-02T02:49:56;4.20;99.90
16995;DHT22;8614;48.522;9.206;2024-03-02T02:52:22;4.10;99.90
16995;DHT22;8614;48.522;9.206;2024-03-02T02:54:49;4.00;99.90
16995;DHT22;8614;48.522;9.206;2024-03-02T02:57:18;4.00;99.90
16995;DHT22;8614;48.522;9.206;2024-03-02T02:59:45;4.00;99.90
16995;DHT22;8614;48.522;9.206;2024-03-02T03:02:11;3.90;99.90
16995;DHT22;8614;48.522;9.206;2024-03-02T03:04:40;3.80;99.90
16995;DHT22;8614;48.522;9.206;2024-03-02T03:07:06;3.70;99.90
16995;DHT22;8614;48.522;9.206;2024-03-02T03:09:33;3.70;99.90
16995;DHT22;8614;48.522;9.206;2024-03-02T03:12:04;3.70;99.90
16995;DHT22;8614;48.522;9.206;2024-03-02T03:14:32;3.60;99.90
16995;DHT22;8614;48.522;9.206;2024-03-02T03:16:59;3.60;99.90
16995;DHT22;8614;48.522;9.206;2024-03-02T03:19:26;3.60;99.90
16995;DHT22;8614;48.522;9.206;2024-03-02T03:21:53;3.70;99.90
16995;DHT22;8614;48.522;9.206;2024-03-02T03:24:20;3.60;99.90
16995;DHT22;8614;48.522;9.206;2024-03-02T03:26:46;3.50;99.90
16995;DHT22;8614;48.522;9.206;2024-03-02T03:29:13;3.40;99.90
16995;DHT22;8614;48.522;9.206;2024-03-02T03:31:41;3.40;99.90
16995;DHT22;8614;48.522;9.206;2024-03-02T03:34:08;3.40;99.90
16995;DHT22;8614;48.522;9.206;2024-03-02T03:36:35;3.30;99.90
16995;DHT22;8614;48.522;9.206;2024-03-02T03:39:03;3.30;99.90
16995;DHT22;8614;48.522;9.206;2024-03-02T03:41:31;3.30;99.90
16995;DHT22;8614;48.522;9.206;2024-03-02T03:43:58;3.20;99.90
16995;DHT22;8614;48.522;9.206;2024-03-02T03:46:25;3.30;99.90
16995;DHT22;8614;48.522;9.206;2024-03-02T03:48:53;3.30;99.90
16995;DHT22;8614;48.522;9.206;2024-03-02T03:51:21;3.20;99.90
16995;DHT22;8614;48.522;9.206;2024-03-02T03:53:48;3.20;99.90
16995;DHT22;8614;48.522;9.206;2024-03-02T03:56:15;3.20;99.90
16995;DHT22;8614;48.522;9.206;2024-03-02T03:58:42;3.20;99.90
16995;DHT22;8614;48.522;9.206;2024-03-02T04:01:09;3.20;99.90
16995;DHT22;8614;48.522;9.206;2024-03-02T04:03:36;3.20;99.90
16995;DHT22;8614;48.522;9.206;2024-03-02T04:06:04;3.20;99.90
16995;DHT22;8614;48.522;9.206;2024-03-02T04:08:31;3.20;99.90
16995;DHT22;8614;48.522;9.206;2024-03-02T04:10:58;3.20;99.90
16995;DHT22;8614;48.522;9.206;2024-03-02T04:13:25;3.10;99.90
16995;DHT22;8614;48.522;9.206;2024-03-02T04:15:51;3.10;99.90
16995;DHT22;8614;48.522;9.206;2024-03-02T04:18:19;3.10;99.90
16995;DHT22;8614;48.522;9.206;2024-03-02T04:20:46;3.10;99.90
16995;DHT22;8614;48.522;9.206;2024-03-02T04:23:14;3.10;99.90
16995;DHT22;8614;48.522;9.206;2024-03-02T04:25:41;3.10;99.90
16995;DHT22;8614;48.522;9.206;2024-03-02T04:28:07;3.10;99.90
16995;DHT22;8614;48.522;9.206;2024-03-02T04:30:34;3.10;99.90
16995;DHT22;8614;48.522;9.206;2024-03-02T04:33:01;3.10;99.90
16995;DHT22;8614;48.522;9.206;2024-03-02T04:35:29;3.10;99.90
16995;DHT22;8614;48.522;9.206;2024-03-02T04:37:56;3.10;99.90
16995;DHT22;8614;48.522;9.206;2024-03-02T04:40:24;3.10;99.90
16995;DHT22;8614;48.522;9.206;2024-03-02T04:42:51;3.00;99.90
16995;DHT22;8614;48.522;9.206;2024-03-02T04:45:17;3.00;99.90
16995;DHT22;8614;48.522;9.206;2024-03-02T04:47:44;3.00;99.90
16995;DHT22;8614;48.522;9.206;2024-03-02T04:50:11;3.00;99.90
16995;DHT22;8614;48.522;9.206;2024-03-02T04:52:38;3.00;99.90
16995;DHT22;8614;48.522;9.206;2024-03-02T04:55:05;2.90;99.90
16995;DHT22;8614;48.522;9.206;2024-03-02T04:57:56;2.90;99.90
16995;DHT22;8614;48.522;9.206;2024-03-02T05:00:23;2.90;99.90
16995;DHT22;8614;48.522;9.206;2024-03-02T05:02:49;2.90;99.90
16995;DHT22;8614;48.522;9.206;2024-03-02T05:05:16;2.90;99.90
16995;DHT22;8614;48.522;9.206;2024-03-02T05:07:43;2.90;99.90
16995;DHT22;8614;48.522;9.206;2024-03-02T05:10:10;2.90;99.90
16995;DHT22;8614;48.522;9.206;2024-03-02T05:12:37;2.90;99.90
16995;DHT22;8614;48.522;9.206;2024-03-02T05:15:26;2.90;99.90
16995;DHT22;8614;48.522;9.206;2024-03-02T05:17:53;2.90;99.90
16995;DHT22;8614;48.522;9.206;2024-03-02T05:20:19;2.90;99.90
16995;DHT22;8614;48.522;9.206;2024-03-02T05:22:45;2.90;99.90
16995;DHT22;8614;48.522;9.206;2024-03-02T05:25:12;2.90;99.90
16995;DHT22;8614;48.522;9.206;2024-03-02T05:27:39;2.90;99.90
16995;DHT22;8614;48.522;9.206;2024-03-02T05:30:07;2.80;99.90
16995;DHT22;8614;48.522;9.206;2024-03-02T05:32:36;2.90;99.90
16995;DHT22;8614;48.522;9.206;2024-03-02T05:35:03;2.80;99.90
16995;DHT22;8614;48.522;9.206;2024-03-02T05:37:31;2.80;99.90
16995;DHT22;8614;48.522;9.206;2024-03-02T05:39:58;2.80;99.90
16995;DHT22;8614;48.522;9.206;2024-03-02T05:42:25;2.90;99.90
16995;DHT22;8614;48.522;9.206;2024-03-02T05:44:55;2.80;99.90
16995;DHT22;8614;48.522;9.206;2024-03-02T05:47:22;2.80;99.90
16995;DHT22;8614;48.522;9.206;2024-03-02T05:49:50;2.80;99.90
16995;DHT22;8614;48.522;9.206;2024-03-02T05:52:17;2.80;99.90
16995;DHT22;8614;48.522;9.206;2024-03-02T05:54:44;2.70;99.90
16995;DHT22;8614;48.522;9.206;2024-03-02T05:57:10;2.70;99.90
16995;DHT22;8614;48.522;9.206;2024-03-02T05:59:57;2.70;99.90
16995;DHT22;8614;48.522;9.206;2024-03-02T06:02:24;2.70;99.90
16995;DHT22;8614;48.522;9.206;2024-03-02T06:04:54;2.70;99.90
16995;DHT22;8614;48.522;9.206;2024-03-02T06:07:20;2.70;99.90
16995;DHT22;8614;48.522;9.206;2024-03-02T06:09:47;2.70;99.90
16995;DHT22;8614;48.522;9.206;2024-03-02T06:12:16;2.70;99.90
16995;DHT22;8614;48.522;9.206;2024-03-02T06:14:43;2.70;99.90
16995;DHT22;8614;48.522;9.206;2024-03-02T06:17:10;2.80;99.90
16995;DHT22;8614;48.522;9.206;2024-03-02T06:19:37;2.80;99.90
16995;DHT22;8614;48.522;9.206;2024-03-02T06:22:05;2.90;99.90
16995;DHT22;8614;48.522;9.206;2024-03-02T06:24:36;2.90;99.90
16995;DHT22;8614;48.522;9.206;2024-03-02T06:27:03;2.90;99.90
16995;DHT22;8614;48.522;9.206;2024-03-02T06:29:29;3.00;99.90
16995;DHT22;8614;48.522;9.206;2024-03-02T06:31:58;3.00;99.90
16995;DHT22;8614;48.522;9.206;2024-03-02T06:34:25;3.20;99.90
16995;DHT22;8614;48.522;9.206;2024-03-02T06:36:52;3.30;99.90
16995;DHT22;8614;48.522;9.206;2024-03-02T06:39:20;3.40;99.90
16995;DHT22;8614;48.522;9.206;2024-03-02T06:41:47;3.50;99.90
16995;DHT22;8614;48.522;9.206;2024-03-02T06:44:13;3.60;99.90
16995;DHT22;8614;48.522;9.206;2024-03-02T06:46:40;3.60;99.90
16995;DHT22;8614;48.522;9.206;2024-03-02T06:49:07;3.70;99.90
16995;DHT22;8614;48.522;9.206;2024-03-02T06:51:36;3.60;99.90
16995;DHT22;8614;48.522;9.206;2024-03-02T06:54:03;3.60;99.90
16995;DHT22;8614;48.522;9.206;2024-03-02T06:56:31;3.60;99.90
16995;DHT22;8614;48.522;9.206;2024-03-02T06:58:58;3.70;99.90
16995;DHT22;8614;48.522;9.206;2024-03-02T07:01:25;3.80;99.90
16995;DHT22;8614;48.522;9.206;2024-03-02T07:03:53;3.80;99.90
16995;DHT22;8614;48.522;9.206;2024-03-02T07:06:20;4.00;99.90
16995;DHT22;8614;48.522;9.206;2024-03-02T07:08:47;4.20;99.90
16995;DHT22;8614;48.522;9.206;2024-03-02T07:11:13;4.30;99.90
16995;DHT22;8614;48.522;9.206;2024-03-02T07:13:42;4.50;99.90
16995;DHT22;8614;48.522;9.206;2024-03-02T07:16:08;4.70;99.90
16995;DHT22;8614;48.522;9.206;2024-03-02T07:18:55;5.10;99.90
16995;DHT22;8614;48.522;9.206;2024-03-02T07:21:28;5.50;99.90
16995;DHT22;8614;48.522;9.206;2024-03-02T07:23:55;6.00;99.90
16995;DHT22;8614;48.522;9.206;2024-03-02T07:26:21;6.40;99.90
16995;DHT22;8614;48.522;9.206;2024-03-02T07:28:50;6.60;99.90
16995;DHT22;8614;48.522;9.206;2024-03-02T07:31:17;6.80;99.90
16995;DHT22;8614;48.522;9.206;2024-03-02T07:33:44;6.80;99.90
16995;DHT22;8614;48.522;9.206;2024-03-02T07:36:12;6.80;99.90
16995;DHT22;8614;48.522;9.206;2024-03-02T07:38:39;6.70;99.90
16995;DHT22;8614;48.522;9.206;2024-03-02T07:41:06;6.70;99.90
16995;DHT22;8614;48.522;9.206;2024-03-02T07:43:34;6.60;99.90
16995;DHT22;8614;48.522;9.206;2024-03-02T07:46:02;6.50;99.90
16995;DHT22;8614;48.522;9.206;2024-03-02T07:48:29;6.50;99.90
16995;DHT22;8614;48.522;9.206;2024-03-02T07:50:56;6.50;99.90
16995;DHT22;8614;48.522;9.206;2024-03-02T07:53:23;6.60;99.90
16995;DHT22;8614;48.522;9.206;2024-03-02T07:55:50;6.60;99.90
16995;DHT22;8614;48.522;9.206;2024-03-02T07:58:17;6.70;99.90
16995;DHT22;8614;48.522;9.206;2024-03-02T08:00:45;6.60;99.90
16995;DHT22;8614;48.522;9.206;2024-03-02T08:03:13;6.60;99.90
16995;DHT22;8614;48.522;9.206;2024-03-02T08:05:40;6.60;99.90
16995;DHT22;8614;48.522;9.206;2024-03-02T08:08:07;6.60;99.90
16995;DHT22;8614;48.522;9.206;2024-03-02T08:10:34;6.60;99.90
16995;DHT22;8614;48.522;9.206;2024-03-02T08:13:01;6.70;99.90
16995;DHT22;8614;48.522;9.206;2024-03-02T08:15:28;6.90;99.90
16995;DHT22;8614;48.522;9.206;2024-03-02T08:17:54;7.30;99.90
16995;DHT22;8614;48.522;9.206;2024-03-02T08:20:23;7.70;99.90
16995;DHT22;8614;48.522;9.206;2024-03-02T08:22:50;8.10;99.90
16995;DHT22;8614;48.522;9.206;2024-03-02T08:25:17;8.50;99.90
16995;DHT22;8614;48.522;9.206;2024-03-02T08:27:44;8.80;99.90
16995;DHT22;8614;48.522;9.206;2024-03-02T08:30:12;9.10;99.90
16995;DHT22;8614;48.522;9.206;2024-03-02T08:32:39;9.40;99.90
16995;DHT22;8614;48.522;9.206;2024-03-02T08:35:06;9.60;99.90
16995;DHT22;8614;48.522;9.206;2024-03-02T08:37:35;9.70;99.90
16995;DHT22;8614;48.522;9.206;2024-03-02T08:40:04;10.10;99.90
16995;DHT22;8614;48.522;9.206;2024-03-02T08:42:32;10.40;99.90
16995;DHT22;8614;48.522;9.206;2024-03-02T08:45:00;10.60;99.90
16995;DHT22;8614;48.522;9.206;2024-03-02T08:47:27;10.80;99.90
16995;DHT22;8614;48.522;9.206;2024-03-02T08:49:54;10.90;99.90
16995;DHT22;8614;48.522;9.206;2024-03-02T08:52:21;11.10;99.90
16995;DHT22;8614;48.522;9.206;2024-03-02T08:54:49;11.00;99.90
16995;DHT22;8614;48.522;9.206;2024-03-02T08:57:16;11.10;99.90
16995;DHT22;8614;48.522;9.206;2024-03-02T08:59:43;11.10;99.90
16995;DHT22;8614;48.522;9.206;2024-03-02T09:02:10;11.20;99.90
16995;DHT22;8614;48.522;9.206;2024-03-02T09:04:37;11.30;99.90
16995;DHT22;8614;48.522;9.206;2024-03-02T09:07:04;11.50;99.90
16995;DHT22;8614;48.522;9.206;2024-03-02T09:09:31;11.80;99.90
16995;DHT22;8614;48.522;9.206;2024-03-02T09:11:59;12.10;99.90
16995;DHT22;8614;48.522;9.206;2024-03-02T09:14:26;12.60;99.90
16995;DHT22;8614;48.522;9.206;2024-03-02T09:16:53;12.80;99.90
16995;DHT22;8614;48.522;9.206;2024-03-02T09:19:20;13.10;99.90
16995;DHT22;8614;48.522;9.206;2024-03-02T09:21:47;13.40;99.90
16995;DHT22;8614;48.522;9.206;2024-03-02T09:24:14;13.60;99.90
16995;DHT22;8614;48.522;9.206;2024-03-02T09:26:40;13.90;99.90
16995;DHT22;8614;48.522;9.206;2024-03-02T09:29:10;14.20;99.90
16995;DHT22;8614;48.522;9.206;2024-03-02T09:31:39;14.40;99.90
16995;DHT22;8614;48.522;9.206;2024-03-02T09:34:06;14.40;99.90
16995;DHT22;8614;48.522;9.206;2024-03-02T09:36:33;14.20;99.90
16995;DHT22;8614;48.522;9.206;2024-03-02T09:39:00;14.50;99.90
16995;DHT22;8614;48.522;9.206;2024-03-02T09:41:29;14.60;99.90
16995;DHT22;8614;48.522;9.206;2024-03-02T09:43:56;14.80;99.90
16995;DHT22;8614;48.522;9.206;2024-03-02T09:46:24;15.00;99.90
16995;DHT22;8614;48.522;9.206;2024-03-02T09:48:51;15.00;99.90
16995;DHT22;8614;48.522;9.206;2024-03-02T09:51:19;14.80;99.90
16995;DHT22;8614;48.522;9.206;2024-03-02T09:53:47;14.70;99.90
16995;DHT22;8614;48.522;9.206;2024-03-02T09:56:14;14.80;99.90
16995;DHT22;8614;48.522;9.206;2024-03-02T09:58:44;14.90;99.90
16995;DHT22;8614;48.522;9.206;2024-03-02T10:01:10;15.00;99.90
16995;DHT22;8614;48.522;9.206;2024-03-02T10:03:39;15.10;99.90
16995;DHT22;8614;48.522;9.206;2024-03-02T10:06:22;15.10;99.90
16995;DHT22;8614;48.522;9.206;2024-03-02T10:08:49;15.10;99.90
16995;DHT22;8614;48.522;9.206;2024-03-02T10:11:26;15.10;99.90
16995;DHT22;8614;48.522;9.206;2024-03-02T10:14:08;14.90;99.90
16995;DHT22;8614;48.522;9.206;2024-03-02T10:16:36;14.80;99.90
16995;DHT22;8614;48.522;9.206;2024-03-02T10:19:21;14.70;99.90
16995;DHT22;8614;48.522;9.206;2024-03-02T10:21:48;14.60;99.90
16995;DHT22;8614;48.522;9.206;2024-03-02T10:24:16;14.40;99.90
16995;DHT22;8614;48.522;9.206;2024-03-02T10:26:43;14.40;99.90
16995;DHT22;8614;48.522;9.206;2024-03-02T10:29:09;14.50;99.90
16995;DHT22;8614;48.522;9.206;2024-03-02T10:31:37;14.40;99.90
16995;DHT22;8614;48.522;9.206;2024-03-02T10:34:05;14.30;99.90
16995;DHT22;8614;48.522;9.206;2024-03-02T10:36:33;14.20;99.90
16995;DHT22;8614;48.522;9.206;2024-03-02T10:39:02;14.00;99.90
16995;DHT22;8614;48.522;9.206;2024-03-02T10:41:32;13.80;99.90
16995;DHT22;8614;48.522;9.206;2024-03-02T10:43:59;13.60;99.90
16995;DHT22;8614;48.522;9.206;2024-03-02T10:46:29;13.50;99.90
16995;DHT22;8614;48.522;9.206;2024-03-02T10:48:56;13.50;99.90
16995;DHT22;8614;48.522;9.206;2024-03-02T10:51:24;13.40;99.90
16995;DHT22;8614;48.522;9.206;2024-03-02T10:53:52;13.40;99.90
16995;DHT22;8614;48.522;9.206;2024-03-02T10:56:27;13.40;99.90
16995;DHT22;8614;48.522;9.206;2024-03-02T10:59:01;13.40;99.90
16995;DHT22;8614;48.522;9.206;2024-03-02T11:01:31;13.50;99.90
16995;DHT22;8614;48.522;9.206;2024-03-02T11:03:59;13.60;99.90
16995;DHT22;8614;48.522;9.206;2024-03-02T11:06:28;13.70;99.90
16995;DHT22;8614;48.522;9.206;2024-03-02T11:09:01;13.70;99.90
16995;DHT22;8614;48.522;9.206;2024-03-02T11:11:32;13.70;99.90
16995;DHT22;8614;48.522;9.206;2024-03-02T11:14:02;13.70;99.90
16995;DHT22;8614;48.522;9.206;2024-03-02T11:16:35;13.70;99.90
16995;DHT22;8614;48.522;9.206;2024-03-02T11:19:04;13.70;99.90
16995;DHT22;8614;48.522;9.206;2024-03-02T11:21:35;13.80;99.90
16995;DHT22;8614;48.522;9.206;2024-03-02T11:24:33;13.90;99.90
16995;DHT22;8614;48.522;9.206;2024-03-02T11:27:01;14.00;99.90
16995;DHT22;8614;48.522;9.206;2024-03-02T11:29:45;14.00;99.90
16995;DHT22;8614;48.522;9.206;2024-03-02T11:32:17;14.10;99.90
16995;DHT22;8614;48.522;9.206;2024-03-02T11:34:46;14.10;99.90
16995;DHT22;8614;48.522;9.206;2024-03-02T11:37:13;14.00;99.90
16995;DHT22;8614;48.522;9.206;2024-03-02T11:39:43;14.10;99.90
16995;DHT22;8614;48.522;9.206;2024-03-02T11:42:11;14.10;99.90
16995;DHT22;8614;48.522;9.206;2024-03-02T11:44:40;14.10;99.90
16995;DHT22;8614;48.522;9.206;2024-03-02T11:47:08;14.10;99.90
16995;DHT22;8614;48.522;9.206;2024-03-02T11:49:38;14.20;99.90
16995;DHT22;8614;48.522;9.206;2024-03-02T11:52:06;14.00;99.90
16995;DHT22;8614;48.522;9.206;2024-03-02T11:54:33;13.90;99.90
16995;DHT22;8614;48.522;9.206;2024-03-02T11:57:03;13.90;99.90
16995;DHT22;8614;48.522;9.206;2024-03-02T11:59:30;13.90;99.90
16995;DHT22;8614;48.522;9.206;2024-03-02T12:01:58;14.00;99.90
16995;DHT22;8614;48.522;9.206;2024-03-02T12:04:25;14.00;99.90
16995;DHT22;8614;48.522;9.206;2024-03-02T12:06:55;14.10;99.90
16995;DHT22;8614;48.522;9.206;2024-03-02T12:09:22;14.10;99.90
16995;DHT22;8614;48.522;9.206;2024-03-02T12:12:03;14.20;99.90
16995;DHT22;8614;48.522;9.206;2024-03-02T12:14:31;14.40;99.90
16995;DHT22;8614;48.522;9.206;2024-03-02T12:16:58;14.40;99.90
16995;DHT22;8614;48.522;9.206;2024-03-02T12:19:25;14.40;99.90
16995;DHT22;8614;48.522;9.206;2024-03-02T12:21:52;14.40;99.90
16995;DHT22;8614;48.522;9.206;2024-03-02T12:24:21;14.50;99.90
16995;DHT22;8614;48.522;9.206;2024-03-02T12:26:49;14.60;99.90
16995;DHT22;8614;48.522;9.206;2024-03-02T12:29:18;14.60;99.90
16995;DHT22;8614;48.522;9.206;2024-03-02T12:31:48;14.50;99.90
16995;DHT22;8614;48.522;9.206;2024-03-02T12:34:16;14.50;99.90
16995;DHT22;8614;48.522;9.206;2024-03-02T12:36:46;14.60;99.90
16995;DHT22;8614;48.522;9.206;2024-03-02T12:39:16;14.80;99.90
16995;DHT22;8614;48.522;9.206;2024-03-02T12:41:43;14.80;99.90
16995;DHT22;8614;48.522;9.206;2024-03-02T12:44:10;14.80;99.90
16995;DHT22;8614;48.522;9.206;2024-03-02T12:46:38;14.70;99.90
16995;DHT22;8614;48.522;9.206;2024-03-02T12:49:08;14.70;99.90
16995;DHT22;8614;48.522;9.206;2024-03-02T12:51:36;14.60;99.90
16995;DHT22;8614;48.522;9.206;2024-03-02T12:54:03;14.60;99.90
16995;DHT22;8614;48.522;9.206;2024-03-02T12:56:31;14.60;99.90
16995;DHT22;8614;48.522;9.206;2024-03-02T12:58:58;14.60;99.90
16995;DHT22;8614;48.522;9.206;2024-03-02T13:01:26;14.70;99.90
16995;DHT22;8614;48.522;9.206;2024-03-02T13:03:54;14.70;99.90
16995;DHT22;8614;48.522;9.206;2024-03-02T13:06:21;14.70;99.90
16995;DHT22;8614;48.522;9.206;2024-03-02T13:08:48;14.60;99.90
16995;DHT22;8614;48.522;9.206;2024-03-02T13:11:16;14.60;99.90
16995;DHT22;8614;48.522;9.206;2024-03-02T13:13:43;14.60;99.90
16995;DHT22;8614;48.522;9.206;2024-03-02T13:16:10;14.60;99.90
16995;DHT22;8614;48.522;9.206;2024-03-02T13:18:38;14.60;99.90
16995;DHT22;8614;48.522;9.206;2024-03-02T13:21:07;14.60;99.90
16995;DHT22;8614;48.522;9.206;2024-03-02T13:23:34;14.50;99.90
16995;DHT22;8614;48.522;9.206;2024-03-02T13:26:01;14.60;99.90
16995;DHT22;8614;48.522;9.206;2024-03-02T13:28:29;14.50;99.90
16995;DHT22;8614;48.522;9.206;2024-03-02T13:30:56;14.60;99.90
16995;DHT22;8614;48.522;9.206;2024-03-02T13:33:22;14.50;99.90
16995;DHT22;8614;48.522;9.206;2024-03-02T13:35:52;14.50;99.90
16995;DHT22;8614;48.522;9.206;2024-03-02T13:38:21;14.60;99.90
16995;DHT22;8614;48.522;9.206;2024-03-02T13:40:49;14.60;99.90
16995;DHT22;8614;48.522;9.206;2024-03-02T13:43:17;14.60;99.90
16995;DHT22;8614;48.522;9.206;2024-03-02T13:45:44;14.60;99.90
16995;DHT22;8614;48.522;9.206;2024-03-02T13:48:12;14.60;99.90
16995;DHT22;8614;48.522;9.206;2024-03-02T13:50:40;14.50;99.90
16995;DHT22;8614;48.522;9.206;2024-03-02T13:53:07;14.50;99.90
16995;DHT22;8614;48.522;9.206;2024-03-02T13:55:36;14.40;99.90
16995;DHT22;8614;48.522;9.206;2024-03-02T13:58:03;14.40;99.90
16995;DHT22;8614;48.522;9.206;2024-03-02T14:00:31;14.40;99.90
16995;DHT22;8614;48.522;9.206;2024-03-02T14:02:58;14.40;99.90
16995;DHT22;8614;48.522;9.206;2024-03-02T14:05:25;14.30;99.90
16995;DHT22;8614;48.522;9.206;2024-03-02T14:07:52;14.20;99.90
16995;DHT22;8614;48.522;9.206;2024-03-02T14:10:20;14.20;99.90
16995;DHT22;8614;48.522;9.206;2024-03-02T14:12:49;14.10;99.90
16995;DHT22;8614;48.522;9.206;2024-03-02T14:15:16;14.20;99.90
16995;DHT22;8614;48.522;9.206;2024-03-02T14:17:43;14.20;99.90
16995;DHT22;8614;48.522;9.206;2024-03-02T14:20:10;14.20;99.90
16995;DHT22;8614;48.522;9.206;2024-03-02T14:22:39;14.30;99.90
16995;DHT22;8614;48.522;9.206;2024-03-02T14:25:06;14.40;99.90
16995;DHT22;8614;48.522;9.206;2024-03-02T14:27:33;14.50;99.90
16995;DHT22;8614;48.522;9.206;2024-03-02T14:30:03;14.50;99.90
16995;DHT22;8614;48.522;9.206;2024-03-02T14:32:30;14.50;99.90
16995;DHT22;8614;48.522;9.206;2024-03-02T14:34:57;14.50;99.90
16995;DHT22;8614;48.522;9.206;2024-03-02T14:37:24;14.60;99.90
16995;DHT22;8614;48.522;9.206;2024-03-02T14:39:51;14.60;99.90
16995;DHT22;8614;48.522;9.206;2024-03-02T14:42:18;14.60;99.90
16995;DHT22;8614;48.522;9.206;2024-03-02T14:44:44;14.60;99.90
16995;DHT22;8614;48.522;9.206;2024-03-02T14:47:13;14.60;99.90
16995;DHT22;8614;48.522;9.206;2024-03-02T14:49:40;14.60;99.90
16995;DHT22;8614;48.522;9.206;2024-03-02T14:52:07;14.70;99.90
16995;DHT22;8614;48.522;9.206;2024-03-02T14:54:34;14.60;99.90
16995;DHT22;8614;48.522;9.206;2024-03-02T14:57:01;14.70;99.90
16995;DHT22;8614;48.522;9.206;2024-03-02T14:59:29;14.70;99.90
16995;DHT22;8614;48.522;9.206;2024-03-02T15:01:56;14.70;99.90
16995;DHT22;8614;48.522;9.206;2024-03-02T15:04:24;14.80;99.90
16995;DHT22;8614;48.522;9.206;2024-03-02T15:06:52;14.70;99.90
16995;DHT22;8614;48.522;9.206;2024-03-02T15:09:19;14.60;99.90
16995;DHT22;8614;48.522;9.206;2024-03-02T15:11:46;14.60;99.90
16995;DHT22;8614;48.522;9.206;2024-03-02T15:14:13;14.40;99.90
16995;DHT22;8614;48.522;9.206;2024-03-02T15:16:40;14.30;99.90
16995;DHT22;8614;48.522;9.206;2024-03-02T15:19:07;14.30;99.90
16995;DHT22;8614;48.522;9.206;2024-03-02T15:21:35;14.10;99.90
16995;DHT22;8614;48.522;9.206;2024-03-02T15:24:02;14.10;99.90
16995;DHT22;8614;48.522;9.206;2024-03-02T15:26:29;14.00;99.90
16995;DHT22;8614;48.522;9.206;2024-03-02T15:28:56;13.90;99.90
16995;DHT22;8614;48.522;9.206;2024-03-02T15:31:24;13.80;99.90
16995;DHT22;8614;48.522;9.206;2024-03-02T15:33:52;13.80;99.90
16995;DHT22;8614;48.522;9.206;2024-03-02T15:36:21;13.80;99.90
16995;DHT22;8614;48.522;9.206;2024-03-02T15:38:49;13.70;99.90
16995;DHT22;8614;48.522;9.206;2024-03-02T15:41:16;13.70;99.90
16995;DHT22;8614;48.522;9.206;2024-03-02T15:43:43;13.60;99.90
16995;DHT22;8614;48.522;9.206;2024-03-02T15:46:09;13.60;99.90
16995;DHT22;8614;48.522;9.206;2024-03-02T15:48:36;13.60;99.90
16995;DHT22;8614;48.522;9.206;2024-03-02T15:51:04;13.50;99.90
16995;DHT22;8614;48.522;9.206;2024-03-02T15:53:31;13.40;99.90
16995;DHT22;8614;48.522;9.206;2024-03-02T15:55:59;13.40;99.90
16995;DHT22;8614;48.522;9.206;2024-03-02T15:58:26;13.30;99.90
16995;DHT22;8614;48.522;9.206;2024-03-02T16:00:52;13.30;99.90